createdAt,value
2023-02-06T14:47:01.295Z,15.57
2023-02-06T14:49:48.280Z,16.00
2023-02-06T14:52:34.489Z,15.88
2023-02-06T14:55:32.711Z,15.90
2023-02-06T14:58:28.117Z,12.25
2023-02-06T15:01:27.772Z,15.00
2023-02-06T15:04:19.268Z,14.15
2023-02-06T15:07:05.026Z,14.23
2023-02-06T15:09:59.383Z,13.00
2023-02-06T15:12:54.027Z,13.43
2023-02-06T15:15:53.335Z,12.50
2023-02-06T15:18:38.499Z,13.15
2023-02-06T15:21:23.791Z,12.55
2023-02-06T15:24:23.681Z,12.35
2023-02-06T15:27:28.316Z,12.52
2023-02-06T15:30:28.364Z,12.77
2023-02-06T15:33:21.370Z,12.77
2023-02-06T15:36:07.954Z,13.30
2023-02-06T15:38:53.590Z,13.23
2023-02-06T15:41:42.417Z,13.25
2023-02-06T15:44:35.050Z,14.57
2023-02-06T15:47:21.362Z,14.27
2023-02-06T15:50:11.919Z,14.05
2023-02-06T15:52:57.347Z,14.20
2023-02-06T15:55:52.002Z,13.05
2023-02-06T15:58:37.841Z,13.38
2023-02-06T16:01:24.693Z,14.93
2023-02-06T16:04:24.161Z,12.68
2023-02-06T16:07:28.703Z,13.25
2023-02-06T16:10:24.937Z,12.35
2023-02-06T16:13:16.336Z,12.48
2023-02-06T16:16:04.042Z,13.27
2023-02-06T16:18:53.735Z,12.75
2023-02-06T16:21:42.090Z,12.07
2023-02-06T16:24:27.907Z,9.13
2023-02-06T16:27:20.356Z,12.43
2023-02-06T16:30:05.993Z,13.02
2023-02-06T16:32:54.677Z,12.55
2023-02-06T16:35:40.429Z,12.73
2023-02-06T16:38:25.835Z,13.80
2023-02-06T16:41:38.766Z,13.13
2023-02-06T16:44:36.127Z,13.70
2023-02-06T16:47:29.678Z,12.57
2023-02-06T16:50:21.840Z,13.98
2023-02-06T16:53:19.098Z,13.98
2023-02-06T16:56:14.217Z,13.52
2023-02-06T16:58:59.548Z,14.85
2023-02-06T17:01:44.757Z,14.10
2023-02-06T17:04:30.409Z,13.85
2023-02-06T17:07:19.404Z,13.75
2023-02-06T17:10:05.965Z,10.07
2023-02-06T17:12:52.199Z,14.32
2023-02-06T17:15:39.225Z,13.77
2023-02-06T17:18:24.399Z,14.43
2023-02-06T17:21:13.846Z,13.73
2023-02-06T17:24:02.491Z,15.15
2023-02-06T17:26:51.014Z,14.35
2023-02-06T17:29:36.565Z,14.63
2023-02-06T17:32:22.864Z,15.32
2023-02-06T17:35:09.395Z,15.45
2023-02-06T17:37:54.875Z,14.98
2023-02-06T17:40:41.326Z,14.50
2023-02-06T17:43:26.891Z,15.55
2023-02-06T17:46:13.184Z,15.73
2023-02-06T17:48:58.828Z,15.25
2023-02-06T17:51:45.139Z,14.57
2023-02-06T17:54:30.271Z,14.93
2023-02-06T17:57:15.412Z,15.30
2023-02-06T18:00:00.983Z,15.52
2023-02-06T18:02:46.168Z,15.38
2023-02-06T18:05:31.942Z,15.80
2023-02-06T18:08:18.271Z,16.00
2023-02-06T18:11:15.170Z,16.17
2023-02-06T18:14:00.574Z,15.30
2023-02-06T18:16:47.051Z,16.30
2023-02-06T18:19:40.584Z,15.90
2023-02-06T18:22:26.396Z,15.55
2023-02-06T18:25:14.706Z,15.70
2023-02-06T18:28:00.251Z,15.40
2023-02-06T18:30:46.834Z,16.40
2023-02-06T18:33:35.110Z,16.70
2023-02-06T18:36:21.397Z,16.60
2023-02-06T18:39:07.465Z,15.40
2023-02-06T18:42:11.645Z,16.55
2023-02-06T18:44:56.733Z,16.88
2023-02-06T18:47:42.373Z,16.48
2023-02-06T18:50:28.020Z,16.67
2023-02-06T18:53:13.395Z,16.60
2023-02-06T18:56:00.591Z,17.38
2023-02-06T18:58:46.391Z,16.75
2023-02-06T19:01:32.687Z,16.55
2023-02-06T19:04:19.090Z,15.52
2023-02-06T19:07:04.220Z,16.33
2023-02-06T19:09:49.597Z,17.80
2023-02-06T19:12:35.004Z,17.02
2023-02-06T19:15:20.415Z,16.50
2023-02-06T19:18:06.046Z,15.68
2023-02-06T19:20:51.378Z,17.23
2023-02-06T19:23:38.171Z,18.05
2023-02-06T19:26:23.982Z,25.10
2023-02-06T19:29:11.157Z,18.80
2023-02-06T19:31:56.490Z,17.60
2023-02-06T19:34:42.133Z,17.55
2023-02-06T19:37:27.669Z,20.17
2023-02-06T19:40:13.143Z,17.75
2023-02-06T19:42:58.656Z,16.73
2023-02-06T19:45:44.031Z,16.98
2023-02-06T19:48:29.431Z,19.70
2023-02-06T19:51:20.745Z,17.50
2023-02-06T19:54:06.457Z,18.55
2023-02-06T19:56:51.997Z,16.98
2023-02-06T19:59:37.058Z,18.45
2023-02-06T20:02:22.758Z,19.48
2023-02-06T20:05:08.500Z,21.00
2023-02-06T20:07:53.940Z,17.65
2023-02-06T20:10:39.297Z,17.70
2023-02-06T20:13:24.601Z,18.98
2023-02-06T20:16:17.285Z,18.33
2023-02-06T20:19:15.392Z,18.85
2023-02-06T20:22:01.262Z,20.50
2023-02-06T20:24:46.654Z,20.27
2023-02-06T20:27:31.769Z,19.63
2023-02-06T20:30:18.728Z,19.60
2023-02-06T20:33:04.434Z,18.95
2023-02-06T20:35:49.571Z,18.73
2023-02-06T20:38:35.683Z,18.33
2023-02-06T20:41:23.582Z,18.77
2023-02-06T20:44:10.834Z,18.90
2023-02-06T20:46:56.167Z,17.52
2023-02-06T20:49:41.966Z,19.10
2023-02-06T20:52:27.483Z,18.65
2023-02-06T20:55:12.651Z,18.38
2023-02-06T20:57:58.121Z,19.48
2023-02-06T21:00:43.500Z,18.13
2023-02-06T21:03:28.501Z,20.10
2023-02-06T21:06:14.697Z,19.38
2023-02-06T21:09:01.084Z,19.42
2023-02-06T21:11:49.173Z,19.25
2023-02-06T21:14:34.509Z,20.23
2023-02-06T21:17:19.965Z,18.85
2023-02-06T21:20:06.493Z,19.02
2023-02-06T21:22:52.804Z,18.90
2023-02-06T21:25:38.894Z,19.48
2023-02-06T21:28:24.377Z,21.98
2023-02-06T21:31:14.389Z,22.83
2023-02-06T21:34:21.455Z,20.75
2023-02-06T21:37:06.654Z,19.98
2023-02-06T21:39:52.177Z,22.35
2023-02-06T21:42:37.440Z,23.80
2023-02-06T21:45:22.794Z,20.08
2023-02-06T21:48:08.935Z,21.52
2023-02-06T21:50:54.596Z,22.98
2023-02-06T21:53:40.923Z,22.27
2023-02-06T21:56:27.740Z,20.95
2023-02-06T21:59:13.340Z,19.85
2023-02-06T22:01:58.672Z,20.02
2023-02-06T22:04:43.964Z,21.20
2023-02-06T22:07:28.990Z,20.25
2023-02-06T22:10:14.562Z,20.25
2023-02-06T22:12:59.819Z,20.13
2023-02-06T22:15:49.761Z,20.52
2023-02-06T22:18:35.549Z,22.20
2023-02-06T22:21:22.997Z,20.83
2023-02-06T22:24:10.493Z,20.40
2023-02-06T22:26:56.180Z,21.77
2023-02-06T22:29:41.522Z,20.55
2023-02-06T22:32:27.186Z,22.52
2023-02-06T22:35:13.973Z,23.73
2023-02-06T22:37:59.809Z,22.88
2023-02-06T22:40:45.219Z,22.27
2023-02-06T22:43:31.959Z,22.27
2023-02-06T22:46:20.961Z,22.48
2023-02-06T22:51:52.703Z,23.08
2023-02-06T22:54:37.929Z,22.42
2023-02-06T22:57:23.764Z,22.50
2023-02-06T23:00:11.567Z,22.05
2023-02-06T23:02:56.648Z,21.95
2023-02-06T23:05:41.979Z,22.23
2023-02-06T23:08:26.886Z,23.23
2023-02-06T23:11:13.272Z,21.13
2023-02-06T23:14:02.349Z,22.50
2023-02-06T23:16:47.864Z,21.58
2023-02-06T23:19:33.444Z,21.85
2023-02-06T23:22:18.757Z,21.20
2023-02-06T23:25:04.286Z,19.63
2023-02-06T23:27:49.515Z,20.55
2023-02-06T23:30:34.961Z,19.63
2023-02-06T23:33:21.326Z,20.75
2023-02-06T23:36:10.757Z,21.00
2023-02-06T23:38:56.405Z,20.35
2023-02-06T23:41:41.986Z,20.02
2023-02-06T23:44:27.709Z,19.33
2023-02-06T23:47:12.794Z,20.67
2023-02-06T23:49:58.294Z,21.98
2023-02-06T23:52:43.999Z,19.02
2023-02-06T23:55:30.567Z,20.17
2023-02-06T23:58:16.047Z,20.65
